Time;durP1;ratioP1;P1;durP2;ratioP2;P2;SDS_P1;SDS_P2;PMS_P1;PMS_P2;Temp;Humidity;BMP_temperature;BMP_pressure;BME280_temperature;BME280_humidity;BME280_pressure;Samples;Min_cycle;Max_cycle;Signal;HPM_P1;HPM_P2
2022/03/28 00:00:15;;;;;;;17.10;8.95;;;6.60;99.90;;;;;;4976447;28;20077;-90
2022/03/28 00:02:43;;;;;;;15.20;9.13;;;5.80;99.90;;;;;;4977283;28;20049;-90
2022/03/28 00:05:10;;;;;;;21.10;9.68;;;6.90;99.90;;;;;;4976086;28;20061;-90
2022/03/28 00:07:36;;;;;;;18.92;9.25;;;6.80;99.90;;;;;;4977035;28;20042;-90
2022/03/28 00:10:02;;;;;;;20.85;9.60;;;6.50;99.90;;;;;;4976711;28;20053;-90
2022/03/28 00:12:28;;;;;;;14.25;9.75;;;5.80;99.90;;;;;;4976092;28;20050;-89
2022/03/28 00:14:54;;;;;;;19.50;9.10;;;6.60;99.90;;;;;;4976420;28;20048;-90
2022/03/28 00:17:19;;;;;;;17.58;9.27;;;6.50;99.90;;;;;;4976585;28;20052;-89
2022/03/28 00:19:45;;;;;;;18.52;9.35;;;5.40;99.90;;;;;;4976694;28;20098;-89
2022/03/28 00:22:19;;;;;;;14.30;7.40;;;6.80;99.90;;;;;;4976747;28;20509;-89
2022/03/28 00:24:48;;;;;;;20.73;8.68;;;5.80;99.90;;;;;;4976084;28;20056;-90
2022/03/28 00:27:17;;;;;;;12.50;8.15;;;6.80;99.90;;;;;;4976808;28;20049;-89
2022/03/28 00:29:44;;;;;;;18.70;9.13;;;5.60;99.90;;;;;;4976168;28;20057;-89
2022/03/28 00:32:10;;;;;;;18.95;8.70;;;7.30;99.90;;;;;;4975507;28;20034;-90
2022/03/28 00:34:37;;;;;;;21.45;8.80;;;6.40;99.90;;;;;;4976270;28;20050;-90
2022/03/28 00:37:04;;;;;;;16.88;8.52;;;5.40;99.90;;;;;;4976328;28;20049;-89
2022/03/28 00:39:30;;;;;;;20.85;8.02;;;5.80;99.90;;;;;;4975315;28;20056;-89
2022/03/28 00:41:56;;;;;;;17.35;8.30;;;7.30;99.90;;;;;;4976408;28;20060;-88
2022/03/28 00:44:22;;;;;;;12.98;7.47;;;6.10;99.90;;;;;;4975005;28;20046;-89
2022/03/28 00:46:48;;;;;;;13.73;7.55;;;5.70;99.90;;;;;;4975550;28;20045;-88
2022/03/28 00:49:14;;;;;;;16.70;7.85;;;5.70;99.90;;;;;;4975729;28;20085;-89
2022/03/28 00:51:40;;;;;;;17.48;7.50;;;6.90;99.90;;;;;;4976565;28;20038;-90
2022/03/28 00:54:06;;;;;;;13.80;7.65;;;5.70;99.90;;;;;;4975654;28;20046;-89
2022/03/28 00:56:33;;;;;;;14.32;7.22;;;6.00;99.90;;;;;;4976062;28;20049;-90
2022/03/28 00:58:58;;;;;;;14.50;7.13;;;6.50;99.90;;;;;;4989583;28;20087;-89
2022/03/28 01:01:26;;;;;;;11.48;6.95;;;6.50;99.90;;;;;;4995106;28;20546;-90
2022/03/28 01:03:52;;;;;;;13.40;7.38;;;6.30;99.90;;;;;;4995239;28;20057;-90
2022/03/28 01:06:27;;;;;;;13.55;7.40;;;6.40;99.90;;;;;;4994870;28;20156;-89
2022/03/28 01:08:53;;;;;;;15.95;7.20;;;5.80;99.90;;;;;;4994680;28;20041;-89
2022/03/28 01:11:19;;;;;;;15.50;7.60;;;5.30;99.90;;;;;;4995453;28;20053;-89
2022/03/28 01:13:47;;;;;;;14.85;6.63;;;5.80;99.90;;;;;;4978314;28;20149;-89
2022/03/28 01:16:12;;;;;;;12.18;6.65;;;6.70;99.90;;;;;;4994998;28;20493;-92
2022/03/28 01:18:47;;;;;;;20.73;6.90;;;4.80;99.90;;;;;;4995450;28;20042;-90
2022/03/28 01:21:13;;;;;;;15.05;7.05;;;5.70;99.90;;;;;;4994756;28;20088;-90
2022/03/28 01:23:39;;;;;;;12.15;6.90;;;5.70;99.90;;;;;;4995305;28;20150;-91
2022/03/28 01:26:06;;;;;;;17.88;7.45;;;6.00;99.90;;;;;;4995383;28;20049;-92
2022/03/28 01:28:32;;;;;;;12.88;7.43;;;5.20;99.90;;;;;;4994664;28;20038;-91
2022/03/28 01:30:58;;;;;;;15.88;7.13;;;5.70;99.90;;;;;;4995236;28;20053;-91
2022/03/28 01:33:24;;;;;;;18.25;7.95;;;6.40;99.90;;;;;;4995268;28;20046;-90
2022/03/28 01:35:52;;;;;;;15.80;7.50;;;5.70;99.90;;;;;;4994878;28;20050;-91
2022/03/28 01:38:19;;;;;;;14.13;7.80;;;5.80;99.90;;;;;;4995774;28;20041;-91
2022/03/28 01:40:48;;;;;;;13.63;7.72;;;6.60;99.90;;;;;;4995231;28;20500;-90
2022/03/28 01:43:14;;;;;;;14.52;7.18;;;6.70;99.90;;;;;;4994965;28;20073;-91
2022/03/28 01:45:40;;;;;;;13.73;7.13;;;5.60;99.90;;;;;;4994607;28;20045;-91
2022/03/28 01:48:15;;;;;;;13.10;7.40;;;5.70;99.90;;;;;;4985262;28;20034;-91
2022/03/28 01:50:41;;;;;;;16.23;8.18;;;5.50;99.90;;;;;;4975202;28;20042;-90
2022/03/28 01:53:07;;;;;;;15.85;8.07;;;5.50;99.90;;;;;;4975477;28;20115;-88
2022/03/28 01:55:33;;;;;;;18.00;8.52;;;5.50;99.90;;;;;;4975353;28;20437;-89
2022/03/28 01:57:58;;;;;;;13.75;7.95;;;6.10;99.90;;;;;;4974480;28;20045;-88
2022/03/28 02:00:25;;;;;;;22.85;9.43;;;6.50;99.90;;;;;;4990420;28;20053;-88
2022/03/28 02:02:51;;;;;;;15.38;8.63;;;6.20;99.90;;;;;;4973985;28;20081;-89
2022/03/28 02:05:18;;;;;;;14.50;8.00;;;6.50;99.90;;;;;;4974654;28;20137;-90
2022/03/28 02:07:46;;;;;;;20.95;8.52;;;5.50;99.90;;;;;;4975196;28;20042;-89
2022/03/28 02:10:15;;;;;;;16.75;8.63;;;6.00;99.90;;;;;;4973780;28;20046;-88
2022/03/28 02:12:44;;;;;;;16.75;8.70;;;5.40;99.90;;;;;;4975144;28;20045;-89
2022/03/28 02:15:11;;;;;;;13.95;8.88;;;6.40;99.90;;;;;;4973800;28;20049;-89
2022/03/28 02:17:38;;;;;;;13.85;8.25;;;5.50;99.90;;;;;;4975889;28;20042;-89
2022/03/28 02:20:06;;;;;;;15.98;8.35;;;5.40;99.90;;;;;;4978298;28;20042;-87
2022/03/28 02:22:33;;;;;;;23.80;10.82;;;5.40;99.90;;;;;;4994636;28;20124;-89
2022/03/28 02:25:04;;;;;;;16.33;8.77;;;6.10;99.90;;;;;;4977606;28;20379;-89
2022/03/28 02:27:30;;;;;;;42.05;8.77;;;5.30;99.90;;;;;;4995968;28;20111;-88
2022/03/28 02:30:10;;;;;;;33.28;8.73;;;5.20;99.90;;;;;;4996982;28;20056;-88
2022/03/28 02:32:36;;;;;;;34.78;9.02;;;5.30;99.90;;;;;;4997004;28;20049;-88
2022/03/28 02:35:04;;;;;;;23.80;7.90;;;5.30;99.90;;;;;;4996950;28;20441;-88
2022/03/28 02:37:30;;;;;;;24.02;7.60;;;5.20;99.90;;;;;;4996925;28;20048;-88
2022/03/28 02:39:56;;;;;;;18.95;6.95;;;6.10;99.90;;;;;;4996382;28;20053;-88
2022/03/28 02:42:22;;;;;;;24.50;7.30;;;4.80;99.90;;;;;;4996382;28;20085;-88
2022/03/28 02:44:49;;;;;;;22.10;8.45;;;5.30;99.90;;;;;;4996840;28;20057;-88
2022/03/28 02:47:25;;;;;;;22.15;7.95;;;6.00;99.90;;;;;;5012726;28;20047;-88
2022/03/28 02:49:51;;;;;;;19.40;8.43;;;5.20;99.90;;;;;;4997544;28;20057;-88
2022/03/28 02:52:17;;;;;;;48.35;9.00;;;5.70;99.90;;;;;;5012157;28;20072;-88
2022/03/28 02:54:42;;;;;;;41.88;8.75;;;4.80;99.90;;;;;;5013811;28;20106;-88
2022/03/28 02:57:17;;;;;;;23.55;8.77;;;4.60;99.90;;;;;;4997213;28;20209;-87
2022/03/28 02:59:43;;;;;;;18.00;7.55;;;4.80;99.90;;;;;;4976479;28;20052;-89
2022/03/28 03:02:09;;;;;;;53.65;9.57;;;6.00;99.90;;;;;;4994404;28;20057;-90
2022/03/28 03:04:35;;;;;;;25.50;7.68;;;6.10;99.90;;;;;;4994191;28;20532;-88
2022/03/28 03:07:10;;;;;;;17.80;7.03;;;5.90;99.90;;;;;;4977505;28;20046;-89
2022/03/28 03:09:36;;;;;;;14.38;7.03;;;5.30;99.90;;;;;;4978233;28;20088;-89
2022/03/28 03:12:01;;;;;;;22.48;6.63;;;5.30;99.90;;;;;;4977997;28;20112;-89
2022/03/28 03:14:27;;;;;;;21.52;6.28;;;5.70;99.90;;;;;;4976773;28;20356;-88
2022/03/28 03:16:53;;;;;;;17.98;5.63;;;5.40;99.90;;;;;;4978755;28;20054;-88
2022/03/28 03:19:28;;;;;;;16.55;5.47;;;5.30;99.90;;;;;;4976994;28;20111;-88
2022/03/28 03:22:00;;;;;;;12.77;6.38;;;5.30;99.90;;;;;;4993944;28;20095;-88
2022/03/28 03:24:26;;;;;;;13.60;5.78;;;6.00;99.90;;;;;;4977837;28;20038;-89
2022/03/28 03:26:52;;;;;;;21.77;6.38;;;5.30;99.90;;;;;;4978335;28;20413;-89
2022/03/28 03:29:18;;;;;;;14.38;5.32;;;5.40;99.90;;;;;;4991330;28;20520;-88
2022/03/28 03:31:43;;;;;;;12.40;5.75;;;6.00;99.90;;;;;;4994149;28;20042;-89
2022/03/28 03:34:12;;;;;;;15.93;6.28;;;5.30;99.90;;;;;;4977298;28;20620;-90
2022/03/28 03:36:38;;;;;;;10.80;5.68;;;5.90;99.90;;;;;;4977623;28;20060;-89
2022/03/28 03:39:04;;;;;;;10.02;5.10;;;4.50;99.90;;;;;;4977260;28;20045;-90
2022/03/28 03:41:31;;;;;;;9.65;4.38;;;5.20;99.90;;;;;;4976806;28;20046;-90
2022/03/28 03:43:56;;;;;;;10.15;5.35;;;5.30;99.90;;;;;;4993228;28;20038;-90
2022/03/28 03:46:22;;;;;;;14.10;5.38;;;5.20;99.90;;;;;;4977186;28;20049;-91
2022/03/28 03:48:48;;;;;;;11.45;5.07;;;5.50;99.90;;;;;;4995970;28;20116;-90
2022/03/28 03:51:13;;;;;;;12.75;5.90;;;5.20;99.90;;;;;;4996605;28;20055;-92
2022/03/28 03:53:39;;;;;;;8.82;4.68;;;5.20;99.90;;;;;;4997050;28;20060;-91
2022/03/28 03:56:05;;;;;;;6.95;3.72;;;5.20;99.90;;;;;;4996366;28;20087;-94
2022/03/28 03:58:31;;;;;;;7.00;2.95;;;5.20;99.90;;;;;;4996441;28;20065;-94
2022/03/28 04:00:56;;;;;;;8.20;3.42;;;5.20;99.90;;;;;;4996256;28;20048;-91
2022/03/28 04:03:28;;;;;;;4.97;2.58;;;5.20;99.90;;;;;;4996195;28;20056;-91
2022/03/28 04:06:00;;;;;;;4.18;2.10;;;4.70;99.90;;;;;;4997267;28;20054;-91
2022/03/28 04:08:27;;;;;;;4.45;2.05;;;4.40;99.90;;;;;;4996375;28;20053;-92
2022/03/28 04:10:53;;;;;;;4.00;2.00;;;5.90;99.90;;;;;;4996859;28;20049;-93
2022/03/28 04:13:19;;;;;;;4.60;2.20;;;4.90;99.90;;;;;;4996584;28;20103;-92
2022/03/28 04:15:45;;;;;;;3.70;1.60;;;4.80;99.90;;;;;;4996247;28;20045;-93
2022/03/28 04:18:10;;;;;;;4.60;2.40;;;4.80;99.90;;;;;;4996140;28;20494;-92
2022/03/28 04:20:42;;;;;;;5.20;2.42;;;4.70;99.90;;;;;;4996510;28;20452;-92
2022/03/28 04:23:12;;;;;;;3.88;2.30;;;4.70;99.90;;;;;;4996371;28;20264;-92
2022/03/28 04:25:38;;;;;;;5.88;2.63;;;5.20;99.90;;;;;;5012085;28;20045;-91
2022/03/28 04:28:06;;;;;;;5.43;3.00;;;4.80;99.90;;;;;;4996191;28;20064;-91
2022/03/28 04:30:32;;;;;;;6.68;3.30;;;4.70;99.90;;;;;;5011462;28;20080;-90
2022/03/28 04:32:58;;;;;;;8.18;3.22;;;5.00;99.90;;;;;;5012923;28;20049;-90
2022/03/28 04:35:23;;;;;;;9.18;4.20;;;5.70;99.90;;;;;;4995055;28;20053;-91
2022/03/28 04:37:49;;;;;;;10.20;4.75;;;4.80;99.90;;;;;;4986277;28;20071;-91
2022/03/28 04:40:17;;;;;;;11.40;6.20;;;5.40;99.90;;;;;;4994824;28;20685;-90
2022/03/28 04:42:45;;;;;;;13.70;7.07;;;6.10;99.90;;;;;;4996059;28;20041;-93
2022/03/28 04:45:11;;;;;;;11.77;6.53;;;4.80;99.90;;;;;;5010686;28;20123;-90
2022/03/28 04:47:37;;;;;;;14.57;6.60;;;5.70;99.90;;;;;;4995842;28;20083;-91
2022/03/28 04:50:04;;;;;;;14.68;7.07;;;5.50;99.90;;;;;;5012432;28;20128;-91
2022/03/28 04:52:30;;;;;;;11.10;5.97;;;4.90;99.90;;;;;;5011179;28;20072;-91
2022/03/28 04:54:56;;;;;;;13.50;6.38;;;5.10;99.90;;;;;;4996051;28;20092;-91
2022/03/28 04:57:22;;;;;;;15.48;6.88;;;4.90;99.90;;;;;;4995514;28;20037;-92
2022/03/28 04:59:48;;;;;;;12.48;7.13;;;5.00;99.90;;;;;;4994557;28;20114;-91
2022/03/28 05:02:14;;;;;;;14.20;6.47;;;5.50;99.90;;;;;;5012166;28;20053;-91
2022/03/28 05:05:05;;;;;;;11.23;6.93;;;4.90;99.90;;;;;;4995028;28;20136;-89
2022/03/28 05:07:31;;;;;;;21.55;7.25;;;5.00;99.90;;;;;;5011644;28;20041;-91
2022/03/28 05:09:58;;;;;;;15.57;7.18;;;5.20;99.90;;;;;;4995847;28;20060;-91
2022/03/28 05:12:29;;;;;;;12.95;7.50;;;5.00;99.90;;;;;;5011760;28;20045;-92
2022/03/28 05:14:55;;;;;;;12.93;7.43;;;4.50;99.90;;;;;;5010380;28;20058;-92
2022/03/28 05:17:26;;;;;;;16.00;8.00;;;6.10;99.90;;;;;;4991989;28;20041;-91
2022/03/28 05:19:52;;;;;;;15.95;8.75;;;4.20;99.90;;;;;;4974523;28;20486;-91
2022/03/28 05:22:19;;;;;;;21.58;10.48;;;6.10;99.90;;;;;;4991978;28;20042;-90
2022/03/28 05:24:45;;;;;;;20.25;10.32;;;4.90;99.90;;;;;;4992514;28;20087;-90
2022/03/28 05:27:10;;;;;;;17.13;9.75;;;5.10;99.90;;;;;;4991480;28;20482;-93
2022/03/28 05:29:36;;;;;;;21.05;10.93;;;5.50;99.90;;;;;;4976000;28;20042;-93
2022/03/28 05:32:03;;;;;;;18.73;9.88;;;5.40;99.90;;;;;;4992227;28;20054;-93
2022/03/28 05:34:30;;;;;;;20.13;10.90;;;5.00;99.90;;;;;;4991423;28;20058;-94
2022/03/28 05:36:59;;;;;;;18.70;10.30;;;6.00;99.90;;;;;;4992481;28;20054;-94
2022/03/28 05:39:26;;;;;;;24.02;10.63;;;5.00;99.90;;;;;;4992042;28;20053;-93
2022/03/28 05:41:51;;;;;;;22.52;11.43;;;5.00;99.90;;;;;;4991682;28;20046;-90
2022/03/28 05:44:29;;;;;;;27.05;12.25;;;6.00;99.90;;;;;;4990866;28;20486;-89
2022/03/28 05:46:54;;;;;;;27.42;12.43;;;4.00;99.90;;;;;;4995898;28;20044;-89
2022/03/28 05:49:22;;;;;;;29.83;13.23;;;5.50;99.90;;;;;;4993698;28;20041;-91
2022/03/28 05:51:49;;;;;;;25.58;13.43;;;4.90;99.90;;;;;;4989483;28;20053;-89
2022/03/28 05:54:15;;;;;;;23.42;12.20;;;5.70;99.90;;;;;;4976139;28;20046;-90
2022/03/28 05:56:48;;;;;;;21.27;12.82;;;6.10;99.90;;;;;;4992812;28;20503;-91
2022/03/28 05:59:14;;;;;;;25.65;13.50;;;5.50;99.90;;;;;;4976054;28;20041;-91
2022/03/28 06:01:40;;;;;;;29.48;15.30;;;5.70;99.90;;;;;;4977219;28;20049;-90
2022/03/28 06:04:06;;;;;;;35.28;18.85;;;5.50;99.90;;;;;;4976311;28;20050;-92
2022/03/28 06:06:32;;;;;;;31.25;17.95;;;5.70;99.90;;;;;;4993609;28;20049;-90
2022/03/28 06:08:58;;;;;;;30.55;17.60;;;5.10;99.90;;;;;;4977193;28;20494;-90
2022/03/28 06:11:24;;;;;;;23.17;15.85;;;4.10;99.90;;;;;;4976509;28;20058;-90
2022/03/28 06:13:50;;;;;;;35.20;18.17;;;5.10;99.90;;;;;;4993156;28;20104;-91
2022/03/28 06:16:16;;;;;;;35.72;20.38;;;5.10;99.90;;;;;;4976210;28;20057;-93
2022/03/28 06:18:42;;;;;;;41.78;23.13;;;6.10;99.90;;;;;;4993920;28;20057;-91
2022/03/28 06:21:08;;;;;;;49.33;28.13;;;5.90;99.90;;;;;;4993132;28;20061;-92
2022/03/28 06:23:35;;;;;;;47.97;28.95;;;5.20;99.90;;;;;;4992819;28;20129;-89
2022/03/28 06:26:10;;;;;;;55.65;33.40;;;5.20;99.90;;;;;;4989920;28;20050;-92
2022/03/28 06:28:39;;;;;;;61.45;36.38;;;5.40;99.90;;;;;;4993204;28;20048;-92
2022/03/28 06:31:05;;;;;;;59.50;35.00;;;5.20;99.90;;;;;;4975652;28;20056;-92
2022/03/28 06:33:31;;;;;;;57.13;34.75;;;5.70;99.90;;;;;;4976869;28;20056;-91
2022/03/28 06:35:57;;;;;;;57.30;34.38;;;5.20;99.90;;;;;;4977020;28;20149;-92
2022/03/28 06:38:23;;;;;;;57.70;33.20;;;5.30;99.90;;;;;;4991728;28;20053;-91
2022/03/28 06:40:48;;;;;;;45.10;27.02;;;6.20;99.90;;;;;;4977004;28;20049;-92
2022/03/28 06:43:14;;;;;;;40.90;25.60;;;5.30;99.90;;;;;;4992357;28;20037;-91
2022/03/28 06:45:40;;;;;;;44.95;27.83;;;5.40;99.90;;;;;;4975479;28;20049;-90
2022/03/28 06:48:06;;;;;;;46.60;27.75;;;5.40;99.90;;;;;;4976418;28;20072;-91
2022/03/28 06:50:34;;;;;;;49.85;27.70;;;5.40;99.90;;;;;;4991770;28;20053;-92
2022/03/28 06:53:00;;;;;;;45.63;25.60;;;6.10;99.90;;;;;;4973636;28;20038;-89
2022/03/28 06:55:31;;;;;;;39.42;24.63;;;6.30;99.90;;;;;;4992354;28;20069;-92
2022/03/28 06:57:57;;;;;;;46.78;26.42;;;5.70;99.90;;;;;;5003868;28;20042;-89
2022/03/28 07:00:22;;;;;;;46.40;25.27;;;6.50;99.90;;;;;;4989573;28;20436;-89
2022/03/28 07:02:48;;;;;;;45.70;27.65;;;5.90;99.90;;;;;;4994605;28;20133;-90
2022/03/28 07:05:15;;;;;;;50.92;27.75;;;6.20;99.90;;;;;;5007904;28;20045;-91
2022/03/28 07:07:43;;;;;;;36.80;22.45;;;6.20;99.90;;;;;;5011240;28;20420;-90
2022/03/28 07:10:10;;;;;;;31.85;22.50;;;6.10;99.90;;;;;;4990184;28;20333;-88
2022/03/28 07:12:37;;;;;;;31.17;22.00;;;5.70;99.90;;;;;;4984207;28;20052;-87
2022/03/28 07:15:04;;;;;;;28.83;17.83;;;6.60;99.90;;;;;;4997958;28;20073;-86
2022/03/28 07:17:29;;;;;;;22.48;16.48;;;5.70;99.90;;;;;;5003501;28;20049;-86
2022/03/28 07:19:55;;;;;;;29.40;18.85;;;5.80;99.90;;;;;;4981479;28;20497;-86
2022/03/28 07:22:21;;;;;;;26.02;17.75;;;5.80;99.90;;;;;;4975417;28;20133;-87
2022/03/28 07:24:46;;;;;;;36.35;18.30;;;6.00;99.90;;;;;;4981783;28;20053;-86
2022/03/28 07:27:12;;;;;;;29.95;19.00;;;6.10;99.90;;;;;;4989207;28;20190;-87
2022/03/28 07:29:38;;;;;;;30.58;19.30;;;6.50;99.90;;;;;;4986354;28;20104;-86
2022/03/28 07:32:04;;;;;;;16.25;8.95;;;6.00;99.90;;;;;;4986088;28;20045;-85
2022/03/28 07:34:30;;;;;;;15.88;9.63;;;6.00;99.90;;;;;;4975862;28;20152;-86
2022/03/28 07:36:57;;;;;;;14.15;8.80;;;6.80;99.90;;;;;;4988742;28;20160;-86
2022/03/28 07:39:23;;;;;;;13.55;9.98;;;6.10;99.90;;;;;;4989294;28;20057;-85
2022/03/28 07:41:50;;;;;;;13.70;9.32;;;6.20;99.90;;;;;;4974080;28;20053;-86
2022/03/28 07:44:16;;;;;;;16.30;11.00;;;6.10;99.90;;;;;;4979704;28;20034;-85
2022/03/28 07:46:44;;;;;;;15.60;11.43;;;6.20;99.90;;;;;;4994196;28;20057;-87
2022/03/28 07:49:11;;;;;;;20.08;12.80;;;6.40;99.90;;;;;;4975934;28;20042;-85
2022/03/28 07:51:37;;;;;;;17.35;12.05;;;6.20;99.90;;;;;;4985458;28;20049;-85
2022/03/28 07:54:03;;;;;;;16.25;11.43;;;6.30;99.90;;;;;;4981466;28;20053;-85
2022/03/28 07:56:29;;;;;;;17.33;11.60;;;6.30;99.90;;;;;;4988131;28;20061;-84
2022/03/28 07:58:55;;;;;;;19.75;13.32;;;6.30;99.90;;;;;;4995616;28;20038;-84
2022/03/28 08:01:20;;;;;;;16.90;12.50;;;6.60;99.90;;;;;;4981876;28;20107;-84
2022/03/28 08:03:47;;;;;;;22.67;12.48;;;6.40;99.90;;;;;;4984162;28;20089;-85
2022/03/28 08:06:13;;;;;;;24.15;14.43;;;6.40;99.90;;;;;;4999543;28;20136;-83
2022/03/28 08:08:38;;;;;;;22.58;14.95;;;6.50;99.90;;;;;;5002107;28;20148;-84
2022/03/28 08:11:07;;;;;;;20.55;15.23;;;6.80;99.90;;;;;;4984754;28;20532;-84
2022/03/28 08:13:33;;;;;;;20.88;15.63;;;6.80;99.90;;;;;;4985993;28;20084;-87
2022/03/28 08:15:59;;;;;;;23.33;17.30;;;7.20;99.90;;;;;;5009197;28;20095;-85
2022/03/28 08:18:26;;;;;;;23.95;16.05;;;6.80;99.90;;;;;;5011622;28;20053;-85
2022/03/28 08:20:53;;;;;;;20.65;15.68;;;7.60;99.90;;;;;;4995034;28;20045;-84
2022/03/28 08:23:20;;;;;;;22.63;15.93;;;6.10;99.90;;;;;;5009607;28;20053;-84
2022/03/28 08:25:47;;;;;;;20.77;15.15;;;6.70;99.90;;;;;;5011355;28;20517;-84
2022/03/28 08:28:14;;;;;;;19.42;13.43;;;6.90;99.90;;;;;;5010244;28;20060;-85
2022/03/28 08:30:40;;;;;;;21.98;14.00;;;6.20;99.90;;;;;;4993417;28;20064;-86
2022/03/28 08:33:06;;;;;;;21.85;13.30;;;7.40;99.90;;;;;;4994488;28;20482;-86
2022/03/28 08:35:31;;;;;;;23.65;14.45;;;6.90;99.90;;;;;;5011446;28;20478;-85
2022/03/28 08:38:04;;;;;;;20.00;15.30;;;7.50;99.90;;;;;;4990571;28;20129;-85
2022/03/28 08:40:30;;;;;;;21.00;13.75;;;7.50;99.90;;;;;;4975206;28;20050;-85
2022/03/28 08:42:56;;;;;;;23.00;14.32;;;7.90;99.90;;;;;;4992092;28;20045;-86
2022/03/28 08:45:21;;;;;;;22.58;14.93;;;7.50;99.90;;;;;;4989416;28;20058;-86
2022/03/28 08:47:55;;;;;;;19.33;15.48;;;7.10;99.90;;;;;;4976122;28;20041;-85
2022/03/28 08:50:21;;;;;;;22.80;15.88;;;8.10;99.90;;;;;;4974969;28;20103;-86
2022/03/28 08:52:47;;;;;;;21.27;14.82;;;7.70;99.90;;;;;;4975695;28;20045;-86
2022/03/28 08:55:14;;;;;;;23.95;15.30;;;7.60;99.90;;;;;;4974590;28;20069;-86
2022/03/28 08:57:40;;;;;;;21.70;15.98;;;7.20;99.90;;;;;;4991868;28;20052;-86
2022/03/28 09:00:09;;;;;;;20.35;15.50;;;8.30;99.90;;;;;;4973471;28;20045;-86
2022/03/28 09:03:08;;;;;;;25.85;15.27;;;7.20;99.90;;;;;;4991858;28;20096;-85
2022/03/28 09:05:36;;;;;;;17.42;14.60;;;7.20;99.90;;;;;;4974348;28;20057;-85
2022/03/28 09:08:04;;;;;;;22.08;15.95;;;8.20;99.90;;;;;;4974969;28;20050;-85
2022/03/28 09:10:33;;;;;;;22.23;15.00;;;7.30;99.90;;;;;;4974628;28;20053;-85
2022/03/28 09:13:04;;;;;;;19.75;14.88;;;8.30;99.90;;;;;;4974193;28;20034;-85
2022/03/28 09:15:55;;;;;;;22.55;15.23;;;7.40;99.90;;;;;;4975666;28;20092;-86
2022/03/28 09:18:29;;;;;;;21.55;15.70;;;7.50;99.90;;;;;;4980763;28;20049;-84
2022/03/28 09:20:58;;;;;;;19.33;14.80;;;7.40;99.90;;;;;;4973428;28;20398;-84
2022/03/28 09:23:31;;;;;;;21.48;16.02;;;7.30;99.90;;;;;;4990342;28;20054;-84
2022/03/28 09:25:57;;;;;;;22.40;15.73;;;7.40;99.90;;;;;;4973560;28;20535;-84
2022/03/28 09:28:25;;;;;;;22.27;16.25;;;7.40;99.90;;;;;;4977907;28;20046;-84
2022/03/28 09:30:50;;;;;;;21.60;15.48;;;7.60;99.90;;;;;;4977309;28;20045;-84
2022/03/28 09:33:18;;;;;;;21.98;15.38;;;7.60;99.90;;;;;;4993562;28;20050;-85
2022/03/28 09:35:47;;;;;;;20.85;15.25;;;7.70;99.90;;;;;;4977913;28;20504;-84
2022/03/28 09:38:15;;;;;;;19.10;15.52;;;8.30;99.90;;;;;;4977945;28;20544;-85
2022/03/28 09:40:51;;;;;;;19.20;14.95;;;8.50;99.90;;;;;;4977115;28;20046;-85
2022/03/28 09:43:21;;;;;;;19.48;15.05;;;7.90;99.90;;;;;;4994646;28;20088;-85
2022/03/28 09:46:00;;;;;;;21.27;14.70;;;8.00;99.90;;;;;;4994717;28;20064;-85
2022/03/28 09:48:28;;;;;;;24.30;16.30;;;8.00;99.90;;;;;;4978385;28;20177;-85
2022/03/28 09:51:02;;;;;;;41.83;19.17;;;7.70;99.90;;;;;;4978508;28;20390;-85
2022/03/28 09:53:31;;;;;;;31.50;20.70;;;8.10;99.90;;;;;;4978862;28;20092;-85
2022/03/28 09:55:59;;;;;;;24.65;18.23;;;8.90;99.90;;;;;;4994179;28;20505;-85
2022/03/28 09:58:32;;;;;;;22.02;16.25;;;7.70;99.90;;;;;;4978688;28;20437;-86
2022/03/28 10:00:59;;;;;;;21.55;14.95;;;8.80;99.90;;;;;;4994182;28;20124;-85
2022/03/28 10:03:28;;;;;;;25.30;15.73;;;8.30;99.90;;;;;;4977522;28;20076;-86
2022/03/28 10:05:54;;;;;;;21.00;15.68;;;8.30;99.90;;;;;;4994107;28;20131;-86
2022/03/28 10:08:20;;;;;;;18.63;14.13;;;9.20;99.90;;;;;;4993206;28;20046;-86
2022/03/28 10:10:46;;;;;;;26.10;14.93;;;8.50;99.90;;;;;;4995533;28;20052;-85
2022/03/28 10:13:12;;;;;;;17.83;14.10;;;9.30;99.90;;;;;;4993458;28;20129;-86
2022/03/28 10:15:39;;;;;;;24.35;15.43;;;9.30;99.90;;;;;;4976805;28;20145;-85
2022/03/28 10:18:14;;;;;;;21.98;15.13;;;8.60;99.90;;;;;;4993684;28;20080;-86
2022/03/28 10:20:43;;;;;;;19.38;14.70;;;9.50;99.90;;;;;;4977698;28;20553;-86
2022/03/28 10:23:12;;;;;;;17.75;14.68;;;8.70;99.90;;;;;;4976568;28;20045;-85
2022/03/28 10:25:39;;;;;;;22.75;14.77;;;9.50;99.90;;;;;;4974991;28;20407;-86
2022/03/28 10:28:19;;;;;;;22.30;14.98;;;8.90;99.90;;;;;;5022298;28;20046;-85
2022/03/28 10:30:45;;;;;;;25.95;15.85;;;8.70;99.90;;;;;;5020059;28;20034;-85
2022/03/28 10:33:16;;;;;;;25.20;15.48;;;9.20;99.90;;;;;;5004275;28;20055;-85
2022/03/28 10:36:02;;;;;;;24.15;16.27;;;8.80;99.90;;;;;;5021029;28;20053;-84
2022/03/28 10:38:28;;;;;;;19.38;14.10;;;8.80;99.90;;;;;;5018915;28;20045;-84
2022/03/28 10:40:57;;;;;;;20.05;14.40;;;9.00;99.90;;;;;;5000967;28;20499;-84
2022/03/28 10:43:25;;;;;;;22.08;15.02;;;9.00;99.90;;;;;;4995400;28;20037;-84
2022/03/28 10:45:56;;;;;;;27.38;15.95;;;9.40;99.90;;;;;;4995797;28;20524;-83
2022/03/28 10:48:52;;;;;;;20.52;14.88;;;9.20;99.90;;;;;;5012489;28;20041;-85
2022/03/28 10:51:21;;;;;;;21.65;14.57;;;9.30;99.90;;;;;;4994937;28;20053;-84
2022/03/28 10:53:58;;;;;;;20.33;15.20;;;9.60;99.90;;;;;;5012905;28;20052;-84
2022/03/28 10:56:27;;;;;;;18.80;13.52;;;9.40;99.90;;;;;;4995782;28;20041;-84
2022/03/28 10:58:55;;;;;;;20.27;14.10;;;9.90;99.90;;;;;;4994700;28;20059;-84
2022/03/28 11:01:22;;;;;;;16.30;13.20;;;9.60;99.90;;;;;;5012136;28;20049;-83
2022/03/28 11:04:00;;;;;;;22.40;14.10;;;10.40;99.90;;;;;;5002411;28;20057;-83
2022/03/28 11:06:45;;;;;;;18.15;14.05;;;9.80;99.90;;;;;;5014999;28;20048;-83
2022/03/28 11:09:11;;;;;;;17.90;13.30;;;10.30;99.90;;;;;;5031144;28;20507;-84
2022/03/28 11:11:54;;;;;;;16.75;13.68;;;9.90;99.90;;;;;;5008568;28;20041;-84
2022/03/28 11:14:40;;;;;;;16.42;13.32;;;10.10;99.90;;;;;;5003548;28;20440;-84
2022/03/28 11:17:15;;;;;;;19.15;14.30;;;10.10;99.90;;;;;;5002525;28;20045;-84
2022/03/28 11:19:57;;;;;;;15.57;12.80;;;10.20;99.90;;;;;;5005208;28;20431;-85
2022/03/28 11:22:45;;;;;;;17.48;13.27;;;10.20;99.90;;;;;;5031511;28;20045;-83
2022/03/28 11:25:28;;;;;;;17.17;13.38;;;10.70;99.90;;;;;;5030831;28;20509;-84
2022/03/28 11:28:08;;;;;;;17.77;13.50;;;10.60;99.90;;;;;;5023804;28;20045;-83
2022/03/28 11:30:39;;;;;;;16.13;13.48;;;10.40;99.90;;;;;;4994697;28;20048;-81
2022/03/28 11:33:08;;;;;;;22.20;14.88;;;10.40;99.90;;;;;;5011021;28;20041;-83
2022/03/28 11:35:34;;;;;;;15.85;13.82;;;10.50;99.90;;;;;;5011468;28;20049;-82
2022/03/28 11:38:01;;;;;;;19.23;14.25;;;11.20;99.90;;;;;;5011249;28;20104;-82
2022/03/28 11:40:38;;;;;;;17.92;14.18;;;11.00;99.90;;;;;;4993467;28;20123;-82
2022/03/28 11:43:04;;;;;;;22.35;14.13;;;10.50;99.90;;;;;;5011483;28;20045;-83
2022/03/28 11:45:31;;;;;;;16.13;13.65;;;10.50;99.90;;;;;;4994545;28;20312;-83
2022/03/28 11:47:59;;;;;;;15.82;13.20;;;10.90;99.90;;;;;;5011052;28;20045;-82
2022/03/28 11:50:29;;;;;;;17.85;13.63;;;10.70;99.90;;;;;;5010428;28;20053;-83
2022/03/28 11:52:55;;;;;;;19.17;13.82;;;10.90;99.90;;;;;;5011536;28;20095;-83
2022/03/28 11:55:25;;;;;;;18.40;14.10;;;11.00;99.90;;;;;;5009796;28;20045;-83
2022/03/28 12:00:37;;;;;;;20.90;14.13;;;11.20;99.90;;;;;;5010842;28;20409;-83
2022/03/28 12:03:04;;;;;;;16.38;13.85;;;11.50;99.90;;;;;;4993901;28;20049;-83
2022/03/28 12:05:35;;;;;;;18.27;12.93;;;11.70;99.90;;;;;;4999034;28;20053;-83
2022/03/28 12:08:09;;;;;;;19.58;14.38;;;11.90;99.90;;;;;;4990522;28;20053;-83
2022/03/28 12:10:37;;;;;;;18.73;14.00;;;12.00;99.90;;;;;;4974595;28;20092;-83
2022/03/28 12:13:06;;;;;;;18.33;13.18;;;12.20;99.90;;;;;;4991510;28;20084;-84
2022/03/28 12:15:34;;;;;;;18.20;13.38;;;12.10;99.90;;;;;;4989241;28;20129;-84
2022/03/28 12:18:02;;;;;;;17.75;13.65;;;12.10;99.90;;;;;;4991808;28;20104;-84
2022/03/28 12:20:31;;;;;;;19.08;14.35;;;12.20;99.90;;;;;;4991060;28;20490;-84
2022/03/28 12:22:58;;;;;;;18.15;13.52;;;12.30;99.90;;;;;;4990940;28;20473;-83
2022/03/28 12:25:28;;;;;;;17.13;13.05;;;12.30;99.90;;;;;;4990191;28;20050;-83
2022/03/28 12:27:55;;;;;;;16.08;13.38;;;12.40;99.90;;;;;;4974920;28;20052;-82
2022/03/28 12:30:28;;;;;;;22.02;12.35;;;12.20;99.90;;;;;;4972824;28;20053;-83
2022/03/28 12:32:55;;;;;;;21.05;13.93;;;12.10;99.90;;;;;;4991166;28;20112;-83
2022/03/28 12:35:21;;;;;;;21.20;12.60;;;12.60;99.90;;;;;;4973795;28;20120;-83
2022/03/28 12:37:59;;;;;;;20.80;13.00;;;11.80;99.90;;;;;;4974185;28;20038;-82
2022/03/28 12:40:28;;;;;;;19.60;13.65;;;12.20;99.90;;;;;;4974343;28;20061;-82
2022/03/28 12:42:55;;;;;;;21.95;13.30;;;11.70;99.90;;;;;;4974379;28;20052;-82
2022/03/28 12:45:26;;;;;;;18.80;13.60;;;11.60;99.90;;;;;;4972940;28;20056;-83
2022/03/28 12:47:58;;;;;;;19.40;13.57;;;11.50;99.90;;;;;;4975143;28;20042;-83